createdAt,value
2018-03-25T00:00:36.797Z,84.23
2018-03-25T00:03:05.191Z,84.07
2018-03-25T00:05:33.537Z,84.21
2018-03-25T00:08:03.798Z,84.38
2018-03-25T00:10:33.136Z,84.70
2018-03-25T00:13:04.062Z,85.03
2018-03-25T00:15:33.280Z,85.24
2018-03-25T00:18:01.695Z,86.06
2018-03-25T00:20:30.061Z,85.86
2018-03-25T00:22:58.523Z,85.61
2018-03-25T00:25:28.766Z,85.54
2018-03-25T00:27:58.909Z,85.77
2018-03-25T00:30:27.291Z,85.50
2018-03-25T00:32:55.583Z,85.35
2018-03-25T00:35:25.689Z,85.20
2018-03-25T00:37:55.941Z,85.23
2018-03-25T00:40:27.015Z,84.87
2018-03-25T00:42:55.537Z,85.17
2018-03-25T00:45:25.150Z,85.34
2018-03-25T00:47:56.111Z,85.24
2018-03-25T00:50:24.489Z,85.20
2018-03-25T00:52:53.112Z,85.19
2018-03-25T00:55:21.470Z,85.23
2018-03-25T00:57:49.783Z,85.44
2018-03-25T01:00:18.119Z,85.75
2018-03-25T01:02:48.192Z,85.75
2018-03-25T01:05:16.595Z,85.68
2018-03-25T01:07:45.149Z,85.96
2018-03-25T01:10:13.443Z,86.36
2018-03-25T01:12:41.911Z,86.27
2018-03-25T01:15:13.138Z,86.51
2018-03-25T01:17:41.758Z,86.56
2018-03-25T01:20:10.087Z,86.19
2018-03-25T01:22:38.391Z,86.09
2018-03-25T01:25:06.721Z,86.31
2018-03-25T01:27:37.133Z,86.53
2018-03-25T01:30:05.486Z,86.71
2018-03-25T01:32:33.802Z,86.76
2018-03-25T01:35:02.152Z,87.00
2018-03-25T01:37:30.609Z,86.99
2018-03-25T01:40:00.661Z,86.84
2018-03-25T01:42:30.675Z,86.80
2018-03-25T01:45:03.191Z,86.56
2018-03-25T01:47:31.511Z,86.49
2018-03-25T01:49:59.853Z,86.88
2018-03-25T01:52:28.150Z,86.85
2018-03-25T01:54:58.223Z,86.86
2018-03-25T01:57:27.468Z,87.03
2018-03-25T01:59:56.561Z,86.89
2018-03-25T02:02:26.580Z,86.76
2018-03-25T02:04:55.062Z,87.17
2018-03-25T02:07:25.946Z,87.32
2018-03-25T02:09:54.414Z,87.26
2018-03-25T02:12:24.340Z,87.24
2018-03-25T02:14:52.786Z,87.31
2018-03-25T02:17:21.126Z,87.19
2018-03-25T02:19:49.455Z,87.09
2018-03-25T02:22:17.733Z,87.34
2018-03-25T02:24:46.115Z,87.27
2018-03-25T02:27:14.458Z,87.42
2018-03-25T02:29:43.476Z,87.35
2018-03-25T02:32:13.532Z,87.42
2018-03-25T02:34:45.249Z,87.24
2018-03-25T02:37:15.242Z,87.45
2018-03-25T02:39:46.313Z,87.81
2018-03-25T02:42:14.871Z,87.78
2018-03-25T02:44:43.173Z,87.82
2018-03-25T02:47:11.545Z,87.64
2018-03-25T02:49:41.585Z,87.62
2018-03-25T02:52:10.052Z,87.96
2018-03-25T02:54:39.125Z,87.79
2018-03-25T02:57:07.441Z,87.73
2018-03-25T02:59:36.848Z,87.87
2018-03-25T03:02:06.154Z,87.97
2018-03-25T03:04:34.483Z,88.04
2018-03-25T03:07:02.826Z,88.21
2018-03-25T03:09:31.395Z,88.11
2018-03-25T03:11:59.842Z,87.89
2018-03-25T03:14:29.913Z,87.70
2018-03-25T03:16:58.354Z,87.52
2018-03-25T03:19:26.684Z,87.66
2018-03-25T03:21:55.745Z,87.78
2018-03-25T03:24:24.054Z,87.90
2018-03-25T03:26:52.361Z,87.79
2018-03-25T03:29:20.728Z,87.74
2018-03-25T03:31:50.810Z,87.59
2018-03-25T03:34:20.027Z,87.44
2018-03-25T03:36:49.234Z,87.52
2018-03-25T03:39:19.297Z,87.87
2018-03-25T03:41:49.517Z,88.12
2018-03-25T03:44:18.024Z,88.11
2018-03-25T03:46:46.683Z,87.84
2018-03-25T03:49:15.148Z,88.36
2018-03-25T03:51:43.515Z,88.51
2018-03-25T03:54:11.883Z,88.49
2018-03-25T03:56:41.084Z,88.66
2018-03-25T03:59:09.425Z,88.64
2018-03-25T04:01:37.748Z,88.43
2018-03-25T04:04:06.238Z,88.77
2018-03-25T04:06:34.834Z,88.63
2018-03-25T04:09:04.922Z,88.37
2018-03-25T04:11:35.883Z,88.23
2018-03-25T04:14:04.472Z,87.93
2018-03-25T04:16:33.564Z,87.73
2018-03-25T04:19:01.900Z,87.53
2018-03-25T04:21:30.280Z,87.98
2018-03-25T04:23:58.614Z,88.64
2018-03-25T04:26:26.966Z,88.97
2018-03-25T04:28:55.475Z,89.07
2018-03-25T04:31:23.882Z,88.86
2018-03-25T04:33:52.394Z,88.61
2018-03-25T04:36:22.434Z,88.43
2018-03-25T04:38:50.862Z,88.31
2018-03-25T04:41:19.920Z,88.62
2018-03-25T04:43:48.239Z,88.47
2018-03-25T04:46:17.432Z,88.44
2018-03-25T04:48:45.737Z,89.07
2018-03-25T04:51:18.966Z,89.03
2018-03-25T04:53:47.281Z,89.09
2018-03-25T04:56:17.374Z,89.09
2018-03-25T04:58:45.776Z,88.93
2018-03-25T05:01:15.728Z,89.12
2018-03-25T05:03:45.909Z,89.08
2018-03-25T05:06:14.326Z,88.95
2018-03-25T05:08:42.700Z,88.90
2018-03-25T05:11:11.000Z,88.74
2018-03-25T05:13:39.664Z,88.78
2018-03-25T05:16:07.952Z,88.98
2018-03-25T05:18:36.452Z,89.42
2018-03-25T05:21:05.011Z,89.48
2018-03-25T05:23:33.266Z,89.32
2018-03-25T05:26:04.371Z,89.19
2018-03-25T05:28:32.713Z,89.12
2018-03-25T05:31:03.660Z,89.00
2018-03-25T05:33:32.041Z,88.83
2018-03-25T05:36:00.357Z,89.09
2018-03-25T05:38:31.394Z,89.11
2018-03-25T05:41:01.896Z,89.12
2018-03-25T05:43:32.583Z,89.02
2018-03-25T05:46:03.211Z,88.94
2018-03-25T05:48:31.806Z,89.02
2018-03-25T05:51:00.199Z,88.98
2018-03-25T05:53:28.574Z,89.47
2018-03-25T05:55:59.550Z,89.59
2018-03-25T05:58:27.959Z,89.43
2018-03-25T06:00:58.257Z,89.23
2018-03-25T06:03:26.989Z,89.10
2018-03-25T06:05:55.418Z,88.97
2018-03-25T06:08:23.798Z,88.98
2018-03-25T06:10:53.761Z,89.02
2018-03-25T06:13:22.149Z,89.10
2018-03-25T06:15:52.379Z,89.32
2018-03-25T06:18:21.691Z,89.60
2018-03-25T06:20:50.087Z,89.84
2018-03-25T06:23:18.619Z,89.96
2018-03-25T06:25:47.087Z,90.08
2018-03-25T06:28:15.421Z,90.18
2018-03-25T06:30:45.630Z,90.50
2018-03-25T06:33:14.121Z,90.59
2018-03-25T06:35:42.467Z,90.68
2018-03-25T06:38:10.954Z,90.74
2018-03-25T06:40:40.139Z,90.79
2018-03-25T06:43:10.439Z,90.72
2018-03-25T06:45:41.143Z,90.70
2018-03-25T06:48:12.286Z,90.62
2018-03-25T06:50:40.641Z,90.75
2018-03-25T06:53:10.031Z,90.61
2018-03-25T06:55:38.555Z,90.46
2018-03-25T06:58:09.555Z,90.30
2018-03-25T07:00:37.962Z,90.08
2018-03-25T07:03:07.201Z,89.90
2018-03-25T07:05:35.663Z,89.79
2018-03-25T07:08:05.328Z,89.54
2018-03-25T07:10:33.796Z,89.52
2018-03-25T07:13:02.401Z,89.34
2018-03-25T07:15:31.501Z,89.11
2018-03-25T07:18:00.943Z,88.91
2018-03-25T07:20:30.927Z,88.71
2018-03-25T07:23:00.999Z,88.56
2018-03-25T07:25:29.847Z,88.21
2018-03-25T07:27:59.935Z,87.98
2018-03-25T07:30:28.593Z,87.46
2018-03-25T07:32:58.667Z,87.00
2018-03-25T07:35:28.102Z,86.58
2018-03-25T07:37:59.329Z,86.12
2018-03-25T07:40:29.044Z,86.02
2018-03-25T07:42:57.528Z,85.78
2018-03-25T07:45:27.815Z,85.17
2018-03-25T07:47:58.480Z,85.08
2018-03-25T07:50:27.078Z,84.66
2018-03-25T07:52:55.383Z,84.26
2018-03-25T07:55:23.705Z,83.69
2018-03-25T07:57:52.040Z,83.37
2018-03-25T08:00:22.359Z,82.24
2018-03-25T08:02:53.061Z,81.59
2018-03-25T08:05:21.381Z,81.13
2018-03-25T08:07:49.809Z,80.49
2018-03-25T08:10:19.059Z,80.32
2018-03-25T08:12:47.535Z,79.66
2018-03-25T08:15:15.883Z,79.75
2018-03-25T08:17:45.967Z,78.92
2018-03-25T08:20:15.472Z,79.43
2018-03-25T08:22:45.861Z,79.14
2018-03-25T08:25:16.593Z,78.95
2018-03-25T08:27:47.497Z,78.58
2018-03-25T08:30:15.880Z,78.45
2018-03-25T08:32:44.222Z,77.99
2018-03-25T08:35:12.644Z,77.71
2018-03-25T08:37:40.971Z,77.60
2018-03-25T08:40:09.421Z,77.37
2018-03-25T08:42:37.755Z,76.93
2018-03-25T08:45:06.139Z,76.44
2018-03-25T08:47:36.102Z,75.51
2018-03-25T08:50:06.080Z,76.64
2018-03-25T08:52:36.808Z,75.77
2018-03-25T08:55:05.179Z,75.90
2018-03-25T08:57:34.610Z,76.10
2018-03-25T09:00:02.961Z,75.08
2018-03-25T09:02:31.378Z,74.61
2018-03-25T09:04:59.719Z,73.70
2018-03-25T09:07:28.163Z,73.19
2018-03-25T09:09:56.577Z,73.07
2018-03-25T09:12:25.056Z,73.73
2018-03-25T09:14:53.408Z,72.32
2018-03-25T09:17:24.585Z,71.61
2018-03-25T09:19:52.969Z,71.27
2018-03-25T09:22:23.024Z,70.20
2018-03-25T09:24:53.176Z,69.66
2018-03-25T09:27:21.612Z,70.24
2018-03-25T09:29:50.008Z,70.43
2018-03-25T09:32:20.199Z,70.22
2018-03-25T09:34:48.602Z,70.53
2018-03-25T09:37:16.970Z,70.52
2018-03-25T09:39:47.423Z,70.35
2018-03-25T09:42:16.602Z,70.93
2018-03-25T09:44:46.832Z,71.10
2018-03-25T09:47:15.206Z,72.14
2018-03-25T09:49:43.705Z,71.65
2018-03-25T09:52:12.136Z,69.91
2018-03-25T09:54:40.543Z,70.53
2018-03-25T09:57:09.027Z,70.53
2018-03-25T09:59:38.945Z,71.00
2018-03-25T10:02:11.850Z,70.24
2018-03-25T10:04:40.220Z,69.96
2018-03-25T10:07:08.621Z,68.83
2018-03-25T10:09:38.804Z,68.78
2018-03-25T10:12:07.258Z,68.43
2018-03-25T10:14:35.744Z,67.44
2018-03-25T10:17:04.218Z,67.51
2018-03-25T10:19:35.184Z,67.65
2018-03-25T10:22:03.574Z,67.51
2018-03-25T10:24:31.929Z,66.40
2018-03-25T10:27:01.002Z,67.39
2018-03-25T10:29:29.322Z,66.78
2018-03-25T10:31:57.834Z,67.51
2018-03-25T10:34:28.725Z,67.17
2018-03-25T10:36:58.238Z,67.33
2018-03-25T10:39:26.576Z,66.64
2018-03-25T10:41:56.021Z,64.97
2018-03-25T10:44:24.526Z,65.75
2018-03-25T10:46:54.654Z,65.80
2018-03-25T10:49:23.168Z,65.56
2018-03-25T10:51:52.808Z,64.17
2018-03-25T10:54:21.999Z,64.22
2018-03-25T10:56:50.390Z,65.37
2018-03-25T10:59:18.760Z,65.19
2018-03-25T11:01:49.398Z,64.28
2018-03-25T11:04:19.406Z,64.48
2018-03-25T11:06:47.850Z,64.60
2018-03-25T11:09:16.925Z,64.43
2018-03-25T11:11:45.297Z,64.19
2018-03-25T11:14:13.902Z,63.95
2018-03-25T11:16:43.991Z,63.12
2018-03-25T11:19:14.438Z,66.19
2018-03-25T11:21:43.592Z,64.26
2018-03-25T11:24:12.735Z,63.29
2018-03-25T11:26:43.926Z,63.83
2018-03-25T11:29:12.314Z,60.41
2018-03-25T11:31:40.685Z,61.16
2018-03-25T11:34:09.850Z,61.33
2018-03-25T11:36:40.221Z,62.06
2018-03-25T11:39:11.418Z,59.71
2018-03-25T11:41:40.032Z,59.07
2018-03-25T11:44:10.100Z,57.98
2018-03-25T11:46:39.778Z,58.38
2018-03-25T11:49:08.164Z,58.89
2018-03-25T11:51:37.812Z,58.25
2018-03-25T11:54:07.087Z,58.06
2018-03-25T11:56:35.745Z,57.69
2018-03-25T12:12:04.126Z,56.04
2018-03-25T12:14:35.073Z,53.61
2018-03-25T12:17:03.592Z,52.74
2018-03-25T12:19:31.869Z,53.17
2018-03-25T12:22:00.174Z,55.26
2018-03-25T12:24:28.561Z,55.02
2018-03-25T12:26:58.677Z,53.98
2018-03-25T12:29:27.012Z,55.49
2018-03-25T12:31:55.292Z,54.45
2018-03-25T12:34:23.650Z,55.82
2018-03-25T12:36:52.098Z,56.03
2018-03-25T12:39:20.582Z,53.53
2018-03-25T12:41:49.714Z,52.56
2018-03-25T12:44:18.067Z,53.09
2018-03-25T12:46:49.064Z,51.84
2018-03-25T12:49:17.428Z,51.39
2018-03-25T12:51:46.215Z,51.75
2018-03-25T12:54:14.584Z,51.50
2018-03-25T12:56:42.902Z,52.34
2018-03-25T12:59:12.966Z,50.39
2018-03-25T13:01:41.316Z,50.75
2018-03-25T13:04:09.853Z,51.32
2018-03-25T13:06:38.340Z,53.19
2018-03-25T13:09:06.660Z,50.73
2018-03-25T13:11:35.109Z,52.44
2018-03-25T13:14:03.461Z,51.27
2018-03-25T13:16:32.378Z,52.69
2018-03-25T13:19:00.745Z,50.86
2018-03-25T13:21:29.114Z,52.96
2018-03-25T13:23:58.157Z,50.91
2018-03-25T13:26:26.445Z,51.57
2018-03-25T13:28:54.938Z,51.53
2018-03-25T13:31:24.516Z,51.95
2018-03-25T13:33:54.080Z,52.24
2018-03-25T13:36:22.511Z,49.57
2018-03-25T13:38:50.900Z,50.69
2018-03-25T13:41:22.459Z,50.50
2018-03-25T13:43:51.039Z,52.14
2018-03-25T13:46:19.422Z,53.35
2018-03-25T13:48:47.756Z,53.48
2018-03-25T13:51:16.111Z,51.06
2018-03-25T13:53:44.581Z,51.21
2018-03-25T13:56:15.513Z,47.89
2018-03-25T13:58:45.708Z,48.90
2018-03-25T14:01:15.974Z,46.35
2018-03-25T14:03:44.452Z,47.95
2018-03-25T14:06:14.535Z,48.07
2018-03-25T14:08:43.663Z,46.99
2018-03-25T14:11:12.726Z,48.23
2018-03-25T14:13:41.051Z,45.63
2018-03-25T14:16:09.466Z,47.33
2018-03-25T14:18:40.806Z,47.08
2018-03-25T14:21:09.199Z,45.29
2018-03-25T14:23:37.578Z,47.47
2018-03-25T14:26:05.956Z,44.51
2018-03-25T14:28:34.305Z,44.76
2018-03-25T14:31:02.716Z,43.99
2018-03-25T14:33:31.090Z,44.14
2018-03-25T14:36:01.196Z,45.08
2018-03-25T14:38:29.674Z,43.61
2018-03-25T14:40:58.075Z,42.65
2018-03-25T14:43:26.444Z,43.51
2018-03-25T14:45:55.839Z,41.99
2018-03-25T14:48:25.161Z,41.33
2018-03-25T14:50:53.528Z,45.02
2018-03-25T14:53:22.913Z,42.18
2018-03-25T14:55:53.033Z,42.18
2018-03-25T14:58:21.517Z,40.70
2018-03-25T15:00:53.402Z,40.94
2018-03-25T15:03:21.960Z,40.82
2018-03-25T15:05:50.325Z,41.96
2018-03-25T15:08:18.643Z,40.46
2018-03-25T15:10:49.556Z,40.06
2018-03-25T15:13:18.695Z,40.53
2018-03-25T15:15:49.783Z,39.71
2018-03-25T15:18:18.511Z,39.73
2018-03-25T15:20:47.001Z,38.36
2018-03-25T15:23:15.297Z,39.31
2018-03-25T15:25:43.737Z,39.06
2018-03-25T15:28:13.163Z,40.84
2018-03-25T15:30:41.787Z,40.69
2018-03-25T15:33:10.275Z,37.21
2018-03-25T15:35:40.709Z,37.09
2018-03-25T15:38:13.591Z,37.58
2018-03-25T15:40:42.043Z,38.98
2018-03-25T15:43:12.398Z,38.52
2018-03-25T15:45:41.843Z,38.18
2018-03-25T15:48:10.347Z,41.29
2018-03-25T15:50:38.664Z,40.14
2018-03-25T15:53:06.972Z,41.66
2018-03-25T15:55:35.445Z,43.93
2018-03-25T15:58:03.829Z,43.41
2018-03-25T16:00:32.280Z,43.03
2018-03-25T16:03:00.619Z,43.34
2018-03-25T16:05:28.992Z,45.30
2018-03-25T16:07:57.257Z,45.25
2018-03-25T16:10:26.357Z,45.04
2018-03-25T16:12:55.555Z,43.49
2018-03-25T16:15:24.761Z,46.18
2018-03-25T16:17:53.129Z,46.42
2018-03-25T16:20:22.467Z,46.14
2018-03-25T16:22:51.825Z,45.24
2018-03-25T16:25:20.382Z,46.66
2018-03-25T16:27:49.820Z,46.57
2018-03-25T16:30:19.860Z,48.40
2018-03-25T16:32:48.262Z,47.61
2018-03-25T16:35:16.714Z,48.68
2018-03-25T16:37:45.212Z,48.55
2018-03-25T16:40:13.578Z,49.29
2018-03-25T16:42:43.662Z,49.67
2018-03-25T16:45:12.131Z,49.48
2018-03-25T16:47:42.973Z,48.70
2018-03-25T16:50:12.082Z,49.59
2018-03-25T16:52:42.188Z,50.28
2018-03-25T16:55:14.003Z,49.63
2018-03-25T16:57:44.212Z,50.19
2018-03-25T17:00:12.747Z,50.00
2018-03-25T17:02:41.189Z,50.58
2018-03-25T17:05:10.517Z,50.65
2018-03-25T17:07:39.611Z,50.71
2018-03-25T17:10:08.052Z,51.12
2018-03-25T17:12:37.309Z,51.46
2018-03-25T17:15:05.725Z,51.87
2018-03-25T17:17:35.932Z,52.41
2018-03-25T17:20:04.327Z,53.16
2018-03-25T17:22:33.041Z,53.59
2018-03-25T17:25:03.095Z,53.99
2018-03-25T17:27:32.262Z,54.05
2018-03-25T17:30:02.346Z,54.02
2018-03-25T17:32:31.489Z,54.70
2018-03-25T17:35:03.386Z,54.90
2018-03-25T17:37:31.972Z,55.10
2018-03-25T17:40:00.421Z,55.43
2018-03-25T17:42:28.885Z,55.88
2018-03-25T17:44:57.398Z,56.09
2018-03-25T17:47:27.463Z,56.07
2018-03-25T17:49:55.953Z,56.85
2018-03-25T17:52:26.593Z,57.23
2018-03-25T17:54:56.241Z,57.37
2018-03-25T17:57:24.652Z,57.89
2018-03-25T17:59:57.393Z,57.75
2018-03-25T18:02:26.153Z,57.87
2018-03-25T18:04:54.670Z,57.92
2018-03-25T18:07:25.951Z,60.07
2018-03-25T18:09:54.434Z,60.50
2018-03-25T18:12:23.868Z,61.25
2018-03-25T18:14:52.346Z,61.93
2018-03-25T18:17:33.465Z,62.17
2018-03-25T18:19:49.238Z,62.70
2018-03-25T18:22:18.395Z,63.01
2018-03-25T18:24:49.453Z,63.56
2018-03-25T18:27:22.022Z,64.13
2018-03-25T18:29:50.431Z,64.68
2018-03-25T18:32:18.887Z,64.95
2018-03-25T18:34:49.046Z,65.54
2018-03-25T18:37:17.498Z,66.04
2018-03-25T18:39:46.112Z,66.27
2018-03-25T18:42:16.278Z,67.14
2018-03-25T18:44:44.781Z,68.05
2018-03-25T18:47:14.803Z,68.18
2018-03-25T18:49:43.701Z,68.69
2018-03-25T18:52:12.805Z,68.77
2018-03-25T18:54:41.315Z,69.28
2018-03-25T18:57:09.869Z,69.71
2018-03-25T18:59:38.301Z,70.11
2018-03-25T19:02:07.617Z,70.36
2018-03-25T19:04:38.024Z,70.69
2018-03-25T19:07:10.473Z,70.74
2018-03-25T19:09:41.507Z,70.86
2018-03-25T19:12:11.114Z,71.30
2018-03-25T19:14:40.821Z,71.75
2018-03-25T19:17:13.989Z,71.94
2018-03-25T19:19:42.617Z,72.15
2018-03-25T19:22:11.152Z,72.21
2018-03-25T19:24:39.911Z,72.21
2018-03-25T19:27:10.203Z,72.20
2018-03-25T19:29:43.018Z,72.33
2018-03-25T19:32:14.753Z,72.28
2018-03-25T19:34:43.236Z,72.19
2018-03-25T19:37:11.837Z,72.49
2018-03-25T19:39:41.502Z,72.75
2018-03-25T19:42:10.190Z,72.86
2018-03-25T19:44:41.504Z,73.10
2018-03-25T19:47:10.021Z,73.57
2018-03-25T19:49:40.375Z,73.30
2018-03-25T19:52:10.878Z,73.52
2018-03-25T19:54:41.008Z,74.20
2018-03-25T19:57:09.531Z,73.90
2018-03-25T19:59:40.569Z,73.99
2018-03-25T20:02:08.983Z,74.08
2018-03-25T20:04:37.336Z,74.49
2018-03-25T20:07:08.810Z,74.54
2018-03-25T20:09:37.244Z,74.40
2018-03-25T20:12:05.639Z,74.48
2018-03-25T20:14:35.868Z,74.58
2018-03-25T20:17:06.743Z,75.02
2018-03-25T20:19:35.525Z,74.70
2018-03-25T20:22:06.324Z,74.87
2018-03-25T20:24:35.145Z,75.45
2018-03-25T20:27:03.541Z,75.86
2018-03-25T20:29:33.690Z,76.54
2018-03-25T20:32:02.112Z,77.37
2018-03-25T20:34:32.858Z,77.88
2018-03-25T20:37:05.544Z,77.86
2018-03-25T20:42:08.744Z,78.32
2018-03-25T20:44:39.214Z,78.03
2018-03-25T20:47:12.235Z,77.81
2018-03-25T20:49:41.027Z,77.89
2018-03-25T20:52:10.378Z,77.94
2018-03-25T20:54:40.786Z,77.93
2018-03-25T20:57:10.330Z,78.74
2018-03-25T20:59:38.743Z,78.88
2018-03-25T21:02:07.259Z,79.52
2018-03-25T21:04:35.764Z,79.44
2018-03-25T21:07:05.670Z,79.13
2018-03-25T21:09:35.824Z,79.64
2018-03-25T21:12:04.187Z,79.72
2018-03-25T21:14:35.228Z,79.97
2018-03-25T21:17:03.672Z,80.05
2018-03-25T21:19:32.809Z,80.06
2018-03-25T21:22:03.032Z,80.05
2018-03-25T21:24:32.362Z,80.58
2018-03-25T21:27:01.026Z,81.04
2018-03-25T21:29:29.312Z,81.19
2018-03-25T21:31:59.433Z,81.18
2018-03-25T21:34:29.368Z,81.25
2018-03-25T21:36:57.854Z,80.83
2018-03-25T21:39:27.804Z,81.13
2018-03-25T21:41:57.973Z,81.40
2018-03-25T21:44:28.125Z,81.65
2018-03-25T21:46:56.570Z,81.76
2018-03-25T21:49:28.105Z,81.56
2018-03-25T21:51:56.453Z,81.66
2018-03-25T21:54:27.573Z,81.69
2018-03-25T21:56:56.036Z,81.50
2018-03-25T21:59:24.480Z,81.60
2018-03-25T22:01:55.497Z,81.68
2018-03-25T22:04:23.881Z,82.06
2018-03-25T22:06:52.229Z,81.90
2018-03-25T22:09:23.171Z,81.84
2018-03-25T22:11:51.589Z,81.61
2018-03-25T22:14:19.944Z,81.33
2018-03-25T22:16:48.279Z,81.11
2018-03-25T22:19:16.777Z,81.78
2018-03-25T22:21:45.231Z,82.94
2018-03-25T22:24:13.576Z,83.18
2018-03-25T22:26:43.719Z,82.78
2018-03-25T22:29:14.693Z,82.90
2018-03-25T22:31:43.099Z,83.47
2018-03-25T22:34:12.189Z,83.24
2018-03-25T22:36:41.390Z,83.05
2018-03-25T22:39:09.759Z,82.91
2018-03-25T22:41:38.117Z,83.00
2018-03-25T22:44:06.593Z,82.62
2018-03-25T22:46:34.929Z,82.44
2018-03-25T22:49:05.042Z,82.31
2018-03-25T22:51:33.435Z,82.45
2018-03-25T22:54:06.393Z,82.45
2018-03-25T22:56:34.833Z,82.31
2018-03-25T22:59:05.911Z,82.29
2018-03-25T23:01:36.244Z,82.10
2018-03-25T23:04:06.934Z,82.33
2018-03-25T23:06:37.218Z,82.31
2018-03-25T23:09:13.293Z,82.36
2018-03-25T23:11:44.431Z,82.37
2018-03-25T23:14:12.830Z,82.62
2018-03-25T23:16:43.869Z,82.40
2018-03-25T23:19:12.287Z,82.88
2018-03-25T23:21:40.831Z,83.28
2018-03-25T23:24:11.286Z,83.34
2018-03-25T23:26:42.166Z,83.54
2018-03-25T23:29:12.758Z,83.59
2018-03-25T23:31:41.211Z,83.69
2018-03-25T23:34:12.362Z,83.41
2018-03-25T23:36:41.451Z,83.32
2018-03-25T23:39:09.786Z,83.17
2018-03-25T23:41:39.819Z,83.15
2018-03-25T23:44:08.163Z,83.23
2018-03-25T23:46:36.604Z,83.42
2018-03-25T23:49:04.876Z,83.75
2018-03-25T23:51:33.328Z,83.65
2018-03-25T23:54:01.618Z,83.79
2018-03-25T23:56:30.348Z,84.20
2018-03-25T23:58:58.635Z,84.04
